sensor_id;sensor_type;location;lat;lon;timestamp;P1;durP1;ratioP1;P2;durP2;ratioP2
15110;SDS011;7656;51.954;7.998;2023-09-08T00:04:11;4.57;;;4.17;;
15110;SDS011;7656;51.954;7.998;2023-09-08T00:08:32;5.37;;;4.40;;
15110;SDS011;7656;51.954;7.998;2023-09-08T00:12:53;5.80;;;4.53;;
15110;SDS011;7656;51.954;7.998;2023-09-08T00:17:14;9.00;;;5.20;;
15110;SDS011;7656;51.954;7.998;2023-09-08T00:21:36;6.17;;;4.27;;
15110;SDS011;7656;51.954;7.998;2023-09-08T00:25:57;6.87;;;5.37;;
15110;SDS011;7656;51.954;7.998;2023-09-08T00:30:19;6.00;;;4.77;;
15110;SDS011;7656;51.954;7.998;2023-09-08T00:34:40;5.80;;;4.80;;
15110;SDS011;7656;51.954;7.998;2023-09-08T00:39:01;5.90;;;5.20;;
15110;SDS011;7656;51.954;7.998;2023-09-08T00:43:23;4.87;;;4.40;;
15110;SDS011;7656;51.954;7.998;2023-09-08T00:47:44;6.47;;;4.10;;
15110;SDS011;7656;51.954;7.998;2023-09-08T00:52:05;5.70;;;5.13;;
15110;SDS011;7656;51.954;7.998;2023-09-08T00:56:26;5.37;;;4.70;;
15110;SDS011;7656;51.954;7.998;2023-09-08T01:00:48;6.50;;;4.70;;
15110;SDS011;7656;51.954;7.998;2023-09-08T01:05:09;5.73;;;5.13;;
15110;SDS011;7656;51.954;7.998;2023-09-08T01:09:31;5.30;;;4.47;;
15110;SDS011;7656;51.954;7.998;2023-09-08T01:13:52;5.33;;;4.83;;
15110;SDS011;7656;51.954;7.998;2023-09-08T01:18:13;7.20;;;5.20;;
15110;SDS011;7656;51.954;7.998;2023-09-08T01:22:45;6.20;;;4.83;;
15110;SDS011;7656;51.954;7.998;2023-09-08T01:27:34;5.13;;;4.67;;
15110;SDS011;7656;51.954;7.998;2023-09-08T01:31:56;5.27;;;4.70;;
15110;SDS011;7656;51.954;7.998;2023-09-08T01:36:17;5.33;;;4.83;;
15110;SDS011;7656;51.954;7.998;2023-09-08T01:40:39;6.67;;;5.20;;
15110;SDS011;7656;51.954;7.998;2023-09-08T01:45:00;5.77;;;5.23;;
15110;SDS011;7656;51.954;7.998;2023-09-08T01:49:22;5.73;;;5.13;;
15110;SDS011;7656;51.954;7.998;2023-09-08T01:53:44;6.27;;;5.47;;
15110;SDS011;7656;51.954;7.998;2023-09-08T01:58:05;7.00;;;5.10;;
15110;SDS011;7656;51.954;7.998;2023-09-08T02:02:26;6.17;;;5.10;;
15110;SDS011;7656;51.954;7.998;2023-09-08T02:06:47;6.73;;;5.73;;
15110;SDS011;7656;51.954;7.998;2023-09-08T02:11:08;6.83;;;5.50;;
15110;SDS011;7656;51.954;7.998;2023-09-08T02:15:29;8.13;;;5.87;;
15110;SDS011;7656;51.954;7.998;2023-09-08T02:19:50;6.60;;;5.77;;
15110;SDS011;7656;51.954;7.998;2023-09-08T02:24:11;6.97;;;5.93;;
15110;SDS011;7656;51.954;7.998;2023-09-08T02:28:32;7.30;;;5.90;;
15110;SDS011;7656;51.954;7.998;2023-09-08T02:32:54;7.23;;;6.10;;
15110;SDS011;7656;51.954;7.998;2023-09-08T02:37:15;8.03;;;6.43;;
15110;SDS011;7656;51.954;7.998;2023-09-08T02:41:39;7.10;;;6.33;;
15110;SDS011;7656;51.954;7.998;2023-09-08T02:46:00;9.70;;;6.50;;
15110;SDS011;7656;51.954;7.998;2023-09-08T02:50:21;8.27;;;6.77;;
15110;SDS011;7656;51.954;7.998;2023-09-08T02:54:43;7.53;;;6.23;;
15110;SDS011;7656;51.954;7.998;2023-09-08T02:59:04;9.30;;;6.20;;
15110;SDS011;7656;51.954;7.998;2023-09-08T03:03:25;7.27;;;6.53;;
15110;SDS011;7656;51.954;7.998;2023-09-08T03:07:47;7.00;;;6.30;;
15110;SDS011;7656;51.954;7.998;2023-09-08T03:12:09;9.87;;;5.93;;
15110;SDS011;7656;51.954;7.998;2023-09-08T03:16:30;6.83;;;6.13;;
15110;SDS011;7656;51.954;7.998;2023-09-08T03:20:51;7.17;;;6.47;;
15110;SDS011;7656;51.954;7.998;2023-09-08T03:25:15;7.10;;;6.40;;
15110;SDS011;7656;51.954;7.998;2023-09-08T03:29:37;8.20;;;6.33;;
15110;SDS011;7656;51.954;7.998;2023-09-08T03:33:58;8.47;;;6.47;;
15110;SDS011;7656;51.954;7.998;2023-09-08T03:38:19;8.80;;;6.27;;
15110;SDS011;7656;51.954;7.998;2023-09-08T03:42:40;7.53;;;6.63;;
15110;SDS011;7656;51.954;7.998;2023-09-08T03:47:03;7.33;;;6.53;;
15110;SDS011;7656;51.954;7.998;2023-09-08T03:51:24;7.07;;;6.03;;
15110;SDS011;7656;51.954;7.998;2023-09-08T03:55:45;8.90;;;7.13;;
15110;SDS011;7656;51.954;7.998;2023-09-08T04:00:08;9.10;;;6.70;;
15110;SDS011;7656;51.954;7.998;2023-09-08T04:04:36;6.83;;;6.13;;
15110;SDS011;7656;51.954;7.998;2023-09-08T04:08:57;7.13;;;6.43;;
15110;SDS011;7656;51.954;7.998;2023-09-08T04:13:18;9.53;;;6.97;;
15110;SDS011;7656;51.954;7.998;2023-09-08T04:17:39;12.00;;;7.00;;
15110;SDS011;7656;51.954;7.998;2023-09-08T04:22:01;10.80;;;6.43;;
15110;SDS011;7656;51.954;7.998;2023-09-08T04:26:23;7.60;;;6.43;;
15110;SDS011;7656;51.954;7.998;2023-09-08T04:30:44;8.10;;;6.60;;
15110;SDS011;7656;51.954;7.998;2023-09-08T04:35:05;9.33;;;6.30;;
15110;SDS011;7656;51.954;7.998;2023-09-08T04:39:27;8.70;;;6.93;;
15110;SDS011;7656;51.954;7.998;2023-09-08T04:43:48;7.87;;;7.07;;
15110;SDS011;7656;51.954;7.998;2023-09-08T04:48:09;9.37;;;6.93;;
15110;SDS011;7656;51.954;7.998;2023-09-08T04:52:31;7.43;;;6.50;;
15110;SDS011;7656;51.954;7.998;2023-09-08T04:56:53;7.73;;;7.03;;
15110;SDS011;7656;51.954;7.998;2023-09-08T05:01:15;8.90;;;7.50;;
15110;SDS011;7656;51.954;7.998;2023-09-08T05:05:36;9.07;;;6.37;;
15110;SDS011;7656;51.954;7.998;2023-09-08T05:09:57;8.47;;;7.10;;
15110;SDS011;7656;51.954;7.998;2023-09-08T05:14:24;10.93;;;8.13;;
15110;SDS011;7656;51.954;7.998;2023-09-08T05:18:46;9.80;;;7.53;;
15110;SDS011;7656;51.954;7.998;2023-09-08T05:23:07;10.87;;;7.13;;
15110;SDS011;7656;51.954;7.998;2023-09-08T05:27:28;14.70;;;7.10;;
15110;SDS011;7656;51.954;7.998;2023-09-08T05:31:49;20.57;;;7.33;;
15110;SDS011;7656;51.954;7.998;2023-09-08T05:36:11;9.13;;;7.13;;
15110;SDS011;7656;51.954;7.998;2023-09-08T05:40:32;13.30;;;7.43;;
15110;SDS011;7656;51.954;7.998;2023-09-08T05:44:55;8.97;;;7.17;;
15110;SDS011;7656;51.954;7.998;2023-09-08T05:49:16;11.73;;;7.57;;
15110;SDS011;7656;51.954;7.998;2023-09-08T05:53:38;7.80;;;7.00;;
15110;SDS011;7656;51.954;7.998;2023-09-08T05:58:01;12.33;;;7.53;;
15110;SDS011;7656;51.954;7.998;2023-09-08T06:02:23;11.57;;;7.13;;
15110;SDS011;7656;51.954;7.998;2023-09-08T06:06:44;16.60;;;7.27;;
15110;SDS011;7656;51.954;7.998;2023-09-08T06:11:05;7.80;;;6.57;;
15110;SDS011;7656;51.954;7.998;2023-09-08T06:15:29;10.40;;;6.57;;
15110;SDS011;7656;51.954;7.998;2023-09-08T06:19:50;9.37;;;7.50;;
15110;SDS011;7656;51.954;7.998;2023-09-08T06:24:11;8.70;;;6.97;;
15110;SDS011;7656;51.954;7.998;2023-09-08T06:28:33;10.43;;;7.10;;
15110;SDS011;7656;51.954;7.998;2023-09-08T06:32:54;9.17;;;6.13;;
15110;SDS011;7656;51.954;7.998;2023-09-08T06:37:17;10.88;;;6.90;;
15110;SDS011;7656;51.954;7.998;2023-09-08T06:41:38;7.30;;;6.57;;
15110;SDS011;7656;51.954;7.998;2023-09-08T06:46:01;7.47;;;6.18;;
15110;SDS011;7656;51.954;7.998;2023-09-08T06:50:22;9.93;;;6.22;;
15110;SDS011;7656;51.954;7.998;2023-09-08T06:54:44;7.25;;;6.25;;
15110;SDS011;7656;51.954;7.998;2023-09-08T06:59:06;6.53;;;5.72;;
15110;SDS011;7656;51.954;7.998;2023-09-08T07:03:28;7.28;;;5.38;;
15110;SDS011;7656;51.954;7.998;2023-09-08T07:07:50;6.10;;;4.90;;
15110;SDS011;7656;51.954;7.998;2023-09-08T07:12:12;6.68;;;5.32;;
15110;SDS011;7656;51.954;7.998;2023-09-08T07:16:34;5.55;;;5.05;;
15110;SDS011;7656;51.954;7.998;2023-09-08T07:20:55;7.85;;;5.55;;
15110;SDS011;7656;51.954;7.998;2023-09-08T07:25:16;5.70;;;5.20;;
15110;SDS011;7656;51.954;7.998;2023-09-08T07:29:38;5.55;;;5.05;;
15110;SDS011;7656;51.954;7.998;2023-09-08T07:33:59;4.63;;;4.22;;
15110;SDS011;7656;51.954;7.998;2023-09-08T07:38:20;5.13;;;4.55;;
15110;SDS011;7656;51.954;7.998;2023-09-08T07:42:42;5.88;;;5.25;;
15110;SDS011;7656;51.954;7.998;2023-09-08T07:47:03;4.90;;;4.50;;
15110;SDS011;7656;51.954;7.998;2023-09-08T07:51:24;5.47;;;4.97;;
15110;SDS011;7656;51.954;7.998;2023-09-08T07:55:46;4.85;;;4.30;;
15110;SDS011;7656;51.954;7.998;2023-09-08T08:00:07;8.05;;;4.90;;
15110;SDS011;7656;51.954;7.998;2023-09-08T08:04:35;8.27;;;5.07;;
15110;SDS011;7656;51.954;7.998;2023-09-08T08:08:56;5.57;;;4.50;;
15110;SDS011;7656;51.954;7.998;2023-09-08T08:13:17;5.38;;;4.60;;
15110;SDS011;7656;51.954;7.998;2023-09-08T08:17:38;5.32;;;4.40;;
15110;SDS011;7656;51.954;7.998;2023-09-08T08:22:00;6.22;;;4.75;;
15110;SDS011;7656;51.954;7.998;2023-09-08T08:26:21;5.38;;;4.88;;
15110;SDS011;7656;51.954;7.998;2023-09-08T08:30:42;5.00;;;4.57;;
15110;SDS011;7656;51.954;7.998;2023-09-08T08:35:04;4.10;;;3.90;;
15110;SDS011;7656;51.954;7.998;2023-09-08T08:39:25;5.93;;;5.28;;
15110;SDS011;7656;51.954;7.998;2023-09-08T08:43:46;6.85;;;4.75;;
15110;SDS011;7656;51.954;7.998;2023-09-08T08:48:09;5.82;;;4.22;;
15110;SDS011;7656;51.954;7.998;2023-09-08T08:52:31;5.25;;;4.68;;
15110;SDS011;7656;51.954;7.998;2023-09-08T08:56:52;7.03;;;4.43;;
15110;SDS011;7656;51.954;7.998;2023-09-08T09:01:14;4.93;;;4.55;;
15110;SDS011;7656;51.954;7.998;2023-09-08T09:05:39;4.97;;;4.38;;
15110;SDS011;7656;51.954;7.998;2023-09-08T09:10:01;5.28;;;4.20;;
15110;SDS011;7656;51.954;7.998;2023-09-08T09:14:24;5.78;;;4.43;;
15110;SDS011;7656;51.954;7.998;2023-09-08T09:18:58;5.07;;;4.40;;
15110;SDS011;7656;51.954;7.998;2023-09-08T09:23:27;5.05;;;4.57;;
15110;SDS011;7656;51.954;7.998;2023-09-08T09:27:50;5.55;;;4.47;;
15110;SDS011;7656;51.954;7.998;2023-09-08T09:32:16;4.68;;;4.28;;
15110;SDS011;7656;51.954;7.998;2023-09-08T09:36:45;4.47;;;4.18;;
15110;SDS011;7656;51.954;7.998;2023-09-08T09:41:12;5.63;;;4.32;;
15110;SDS011;7656;51.954;7.998;2023-09-08T09:45:33;4.68;;;4.22;;
15110;SDS011;7656;51.954;7.998;2023-09-08T09:49:55;5.47;;;4.97;;
15110;SDS011;7656;51.954;7.998;2023-09-08T09:54:18;4.50;;;4.13;;
15110;SDS011;7656;51.954;7.998;2023-09-08T09:58:39;4.40;;;4.03;;
15110;SDS011;7656;51.954;7.998;2023-09-08T10:03:03;4.40;;;4.10;;
15110;SDS011;7656;51.954;7.998;2023-09-08T10:07:25;4.47;;;4.13;;
15110;SDS011;7656;51.954;7.998;2023-09-08T10:11:47;4.65;;;3.97;;
15110;SDS011;7656;51.954;7.998;2023-09-08T10:16:09;3.78;;;3.58;;
15110;SDS011;7656;51.954;7.998;2023-09-08T10:20:36;5.22;;;4.18;;
15110;SDS011;7656;51.954;7.998;2023-09-08T10:24:59;6.80;;;4.25;;
15110;SDS011;7656;51.954;7.998;2023-09-08T10:29:25;4.30;;;4.00;;
15110;SDS011;7656;51.954;7.998;2023-09-08T10:33:47;4.55;;;4.15;;
15110;SDS011;7656;51.954;7.998;2023-09-08T10:38:21;4.80;;;4.30;;
15110;SDS011;7656;51.954;7.998;2023-09-08T10:42:46;11.93;;;4.32;;
15110;SDS011;7656;51.954;7.998;2023-09-08T10:47:08;4.68;;;4.35;;
15110;SDS011;7656;51.954;7.998;2023-09-08T10:51:30;4.47;;;4.03;;
15110;SDS011;7656;51.954;7.998;2023-09-08T10:55:52;4.35;;;4.05;;
15110;SDS011;7656;51.954;7.998;2023-09-08T11:00:17;4.28;;;3.97;;
15110;SDS011;7656;51.954;7.998;2023-09-08T11:04:38;4.80;;;3.83;;
15110;SDS011;7656;51.954;7.998;2023-09-08T11:09:08;4.20;;;3.90;;
15110;SDS011;7656;51.954;7.998;2023-09-08T11:13:30;4.60;;;4.25;;
15110;SDS011;7656;51.954;7.998;2023-09-08T11:17:51;3.97;;;3.67;;
15110;SDS011;7656;51.954;7.998;2023-09-08T11:22:12;4.25;;;3.95;;
15110;SDS011;7656;51.954;7.998;2023-09-08T11:26:36;5.80;;;4.32;;
15110;SDS011;7656;51.954;7.998;2023-09-08T11:30:58;4.00;;;3.70;;
15110;SDS011;7656;51.954;7.998;2023-09-08T11:35:19;5.53;;;4.05;;
15110;SDS011;7656;51.954;7.998;2023-09-08T11:39:41;4.20;;;3.90;;
15110;SDS011;7656;51.954;7.998;2023-09-08T11:44:03;4.40;;;4.00;;
15110;SDS011;7656;51.954;7.998;2023-09-08T11:48:25;4.63;;;4.32;;
15110;SDS011;7656;51.954;7.998;2023-09-08T11:52:50;4.20;;;3.80;;
15110;SDS011;7656;51.954;7.998;2023-09-08T11:57:12;4.18;;;3.88;;
15110;SDS011;7656;51.954;7.998;2023-09-08T12:01:34;4.32;;;3.97;;
15110;SDS011;7656;51.954;7.998;2023-09-08T12:05:56;3.75;;;3.55;;
15110;SDS011;7656;51.954;7.998;2023-09-08T12:10:17;4.28;;;3.80;;
15110;SDS011;7656;51.954;7.998;2023-09-08T12:14:42;4.72;;;3.70;;
15110;SDS011;7656;51.954;7.998;2023-09-08T12:19:03;5.57;;;3.60;;
15110;SDS011;7656;51.954;7.998;2023-09-08T12:23:25;4.15;;;3.85;;
15110;SDS011;7656;51.954;7.998;2023-09-08T12:27:46;7.15;;;3.88;;
15110;SDS011;7656;51.954;7.998;2023-09-08T12:32:11;7.85;;;4.40;;
15110;SDS011;7656;51.954;7.998;2023-09-08T12:36:32;3.97;;;3.67;;
15110;SDS011;7656;51.954;7.998;2023-09-08T12:40:56;4.25;;;3.85;;
15110;SDS011;7656;51.954;7.998;2023-09-08T12:45:18;4.15;;;3.83;;
15110;SDS011;7656;51.954;7.998;2023-09-08T12:49:41;3.22;;;3.03;;
15110;SDS011;7656;51.954;7.998;2023-09-08T12:54:02;4.57;;;4.03;;
15110;SDS011;7656;51.954;7.998;2023-09-08T12:58:23;3.95;;;3.65;;
15110;SDS011;7656;51.954;7.998;2023-09-08T13:02:44;5.25;;;3.65;;
15110;SDS011;7656;51.954;7.998;2023-09-08T13:07:05;3.75;;;3.45;;
15110;SDS011;7656;51.954;7.998;2023-09-08T13:11:26;5.15;;;4.00;;
15110;SDS011;7656;51.954;7.998;2023-09-08T13:15:48;4.35;;;4.05;;
15110;SDS011;7656;51.954;7.998;2023-09-08T13:20:10;3.80;;;3.50;;
15110;SDS011;7656;51.954;7.998;2023-09-08T13:24:32;3.60;;;3.28;;
15110;SDS011;7656;51.954;7.998;2023-09-08T13:28:54;4.35;;;3.60;;
15110;SDS011;7656;51.954;7.998;2023-09-08T13:33:15;4.25;;;3.70;;
15110;SDS011;7656;51.954;7.998;2023-09-08T13:37:36;5.10;;;3.75;;
15110;SDS011;7656;51.954;7.998;2023-09-08T13:42:00;3.78;;;3.47;;
15110;SDS011;7656;51.954;7.998;2023-09-08T13:46:23;3.72;;;3.40;;
15110;SDS011;7656;51.954;7.998;2023-09-08T13:50:44;3.42;;;3.13;;
15110;SDS011;7656;51.954;7.998;2023-09-08T13:55:05;3.67;;;3.42;;
15110;SDS011;7656;51.954;7.998;2023-09-08T13:59:27;4.22;;;3.85;;
15110;SDS011;7656;51.954;7.998;2023-09-08T14:03:50;6.03;;;3.20;;
15110;SDS011;7656;51.954;7.998;2023-09-08T14:08:12;5.00;;;3.60;;
15110;SDS011;7656;51.954;7.998;2023-09-08T14:12:33;5.80;;;3.90;;
15110;SDS011;7656;51.954;7.998;2023-09-08T14:16:54;5.15;;;3.72;;
15110;SDS011;7656;51.954;7.998;2023-09-08T14:21:15;4.72;;;4.10;;
15110;SDS011;7656;51.954;7.998;2023-09-08T14:25:36;3.60;;;3.30;;
15110;SDS011;7656;51.954;7.998;2023-09-08T14:29:57;4.88;;;4.40;;
15110;SDS011;7656;51.954;7.998;2023-09-08T14:34:18;4.68;;;4.28;;
15110;SDS011;7656;51.954;7.998;2023-09-08T14:38:39;4.15;;;3.83;;
15110;SDS011;7656;51.954;7.998;2023-09-08T14:43:00;5.22;;;3.65;;
15110;SDS011;7656;51.954;7.998;2023-09-08T14:47:21;4.40;;;4.07;;
15110;SDS011;7656;51.954;7.998;2023-09-08T14:51:42;10.80;;;4.88;;
15110;SDS011;7656;51.954;7.998;2023-09-08T14:56:03;13.27;;;7.78;;
15110;SDS011;7656;51.954;7.998;2023-09-08T15:00:25;8.38;;;3.72;;
15110;SDS011;7656;51.954;7.998;2023-09-08T15:04:46;3.92;;;3.63;;
15110;SDS011;7656;51.954;7.998;2023-09-08T15:09:07;5.75;;;3.33;;
15110;SDS011;7656;51.954;7.998;2023-09-08T15:13:28;5.78;;;4.15;;
15110;SDS011;7656;51.954;7.998;2023-09-08T15:17:50;8.25;;;4.43;;
15110;SDS011;7656;51.954;7.998;2023-09-08T15:22:14;5.32;;;3.85;;
15110;SDS011;7656;51.954;7.998;2023-09-08T15:26:36;3.50;;;3.22;;
15110;SDS011;7656;51.954;7.998;2023-09-08T15:30:57;5.70;;;4.15;;
15110;SDS011;7656;51.954;7.998;2023-09-08T15:35:18;4.80;;;3.53;;
15110;SDS011;7656;51.954;7.998;2023-09-08T15:39:39;5.90;;;3.55;;
15110;SDS011;7656;51.954;7.998;2023-09-08T15:44:00;3.92;;;3.53;;
15110;SDS011;7656;51.954;7.998;2023-09-08T15:48:21;5.03;;;4.05;;
15110;SDS011;7656;51.954;7.998;2023-09-08T15:52:42;4.10;;;3.70;;
15110;SDS011;7656;51.954;7.998;2023-09-08T15:57:03;4.75;;;4.10;;
15110;SDS011;7656;51.954;7.998;2023-09-08T16:01:24;5.28;;;4.65;;
15110;SDS011;7656;51.954;7.998;2023-09-08T16:05:45;6.07;;;4.95;;
15110;SDS011;7656;51.954;7.998;2023-09-08T16:10:07;7.10;;;4.95;;
15110;SDS011;7656;51.954;7.998;2023-09-08T16:14:28;9.10;;;5.22;;
15110;SDS011;7656;51.954;7.998;2023-09-08T16:18:50;6.75;;;6.15;;
15110;SDS011;7656;51.954;7.998;2023-09-08T16:23:13;6.60;;;5.30;;
15110;SDS011;7656;51.954;7.998;2023-09-08T16:27:34;5.20;;;4.80;;
15110;SDS011;7656;51.954;7.998;2023-09-08T16:31:55;7.00;;;5.30;;
15110;SDS011;7656;51.954;7.998;2023-09-08T16:36:16;6.00;;;4.45;;
15110;SDS011;7656;51.954;7.998;2023-09-08T16:40:37;4.63;;;4.22;;
15110;SDS011;7656;51.954;7.998;2023-09-08T16:44:58;7.72;;;5.13;;
15110;SDS011;7656;51.954;7.998;2023-09-08T16:49:19;6.40;;;5.80;;
15110;SDS011;7656;51.954;7.998;2023-09-08T16:53:40;5.95;;;4.53;;
15110;SDS011;7656;51.954;7.998;2023-09-08T16:58:01;6.03;;;5.10;;
15110;SDS011;7656;51.954;7.998;2023-09-08T17:02:23;9.98;;;7.80;;
15110;SDS011;7656;51.954;7.998;2023-09-08T17:06:47;7.03;;;6.32;;
15110;SDS011;7656;51.954;7.998;2023-09-08T17:11:08;7.05;;;4.72;;
15110;SDS011;7656;51.954;7.998;2023-09-08T17:15:30;10.13;;;9.13;;
15110;SDS011;7656;51.954;7.998;2023-09-08T17:19:51;9.80;;;7.15;;
15110;SDS011;7656;51.954;7.998;2023-09-08T17:24:13;5.57;;;4.95;;
15110;SDS011;7656;51.954;7.998;2023-09-08T17:28:34;5.90;;;4.78;;
15110;SDS011;7656;51.954;7.998;2023-09-08T17:32:55;7.53;;;3.65;;
15110;SDS011;7656;51.954;7.998;2023-09-08T17:37:16;9.43;;;4.28;;
15110;SDS011;7656;51.954;7.998;2023-09-08T17:41:37;5.47;;;4.20;;
15110;SDS011;7656;51.954;7.998;2023-09-08T17:45:59;4.50;;;4.10;;
15110;SDS011;7656;51.954;7.998;2023-09-08T17:50:21;5.15;;;4.38;;
15110;SDS011;7656;51.954;7.998;2023-09-08T17:54:42;5.90;;;4.28;;
15110;SDS011;7656;51.954;7.998;2023-09-08T17:59:03;4.95;;;4.25;;
15110;SDS011;7656;51.954;7.998;2023-09-08T18:03:24;6.78;;;6.07;;
15110;SDS011;7656;51.954;7.998;2023-09-08T18:07:46;8.18;;;4.28;;
15110;SDS011;7656;51.954;7.998;2023-09-08T18:12:07;17.20;;;13.75;;
15110;SDS011;7656;51.954;7.998;2023-09-08T18:16:28;19.73;;;15.07;;
15110;SDS011;7656;51.954;7.998;2023-09-08T18:20:50;13.48;;;11.68;;
15110;SDS011;7656;51.954;7.998;2023-09-08T18:25:11;14.48;;;11.27;;
15110;SDS011;7656;51.954;7.998;2023-09-08T18:29:32;24.73;;;14.55;;
15110;SDS011;7656;51.954;7.998;2023-09-08T18:33:53;17.55;;;10.98;;
15110;SDS011;7656;51.954;7.998;2023-09-08T18:38:14;17.65;;;13.70;;
15110;SDS011;7656;51.954;7.998;2023-09-08T18:42:36;11.90;;;7.18;;
15110;SDS011;7656;51.954;7.998;2023-09-08T18:46:57;6.90;;;5.35;;
15110;SDS011;7656;51.954;7.998;2023-09-08T18:51:18;9.00;;;6.45;;
15110;SDS011;7656;51.954;7.998;2023-09-08T18:55:39;7.93;;;5.82;;
15110;SDS011;7656;51.954;7.998;2023-09-08T19:00:00;6.05;;;5.03;;
15110;SDS011;7656;51.954;7.998;2023-09-08T19:04:21;6.65;;;4.97;;
15110;SDS011;7656;51.954;7.998;2023-09-08T19:08:42;9.43;;;5.38;;
15110;SDS011;7656;51.954;7.998;2023-09-08T19:13:03;8.43;;;4.80;;
15110;SDS011;7656;51.954;7.998;2023-09-08T19:17:24;5.50;;;4.97;;
15110;SDS011;7656;51.954;7.998;2023-09-08T19:21:46;5.65;;;5.07;;
15110;SDS011;7656;51.954;7.998;2023-09-08T19:26:08;5.70;;;4.90;;
15110;SDS011;7656;51.954;7.998;2023-09-08T19:30:29;9.73;;;5.35;;
15110;SDS011;7656;51.954;7.998;2023-09-08T19:34:50;10.27;;;5.45;;
15110;SDS011;7656;51.954;7.998;2023-09-08T19:39:12;6.20;;;5.60;;
15110;SDS011;7656;51.954;7.998;2023-09-08T19:43:33;7.70;;;5.35;;
15110;SDS011;7656;51.954;7.998;2023-09-08T19:47:54;9.73;;;5.57;;
15110;SDS011;7656;51.954;7.998;2023-09-08T19:52:15;5.32;;;4.72;;
15110;SDS011;7656;51.954;7.998;2023-09-08T19:56:39;6.07;;;5.47;;
15110;SDS011;7656;51.954;7.998;2023-09-08T20:01:06;8.90;;;5.07;;
15110;SDS011;7656;51.954;7.998;2023-09-08T20:05:30;5.90;;;5.30;;
15110;SDS011;7656;51.954;7.998;2023-09-08T20:09:51;6.38;;;5.78;;
15110;SDS011;7656;51.954;7.998;2023-09-08T20:14:13;5.93;;;5.35;;
15110;SDS011;7656;51.954;7.998;2023-09-08T20:18:34;8.07;;;6.13;;
15110;SDS011;7656;51.954;7.998;2023-09-08T20:22:56;7.15;;;5.38;;
15110;SDS011;7656;51.954;7.998;2023-09-08T20:27:17;6.10;;;5.50;;
15110;SDS011;7656;51.954;7.998;2023-09-08T20:31:38;8.30;;;5.90;;
15110;SDS011;7656;51.954;7.998;2023-09-08T20:35:59;6.50;;;5.78;;
15110;SDS011;7656;51.954;7.998;2023-09-08T20:40:20;31.83;;;20.73;;
15110;SDS011;7656;51.954;7.998;2023-09-08T20:44:42;7.88;;;6.47;;
15110;SDS011;7656;51.954;7.998;2023-09-08T20:49:03;8.02;;;6.35;;
15110;SDS011;7656;51.954;7.998;2023-09-08T20:53:24;6.65;;;6.05;;
15110;SDS011;7656;51.954;7.998;2023-09-08T20:57:45;6.68;;;6.07;;
15110;SDS011;7656;51.954;7.998;2023-09-08T21:02:06;7.15;;;6.45;;
15110;SDS011;7656;51.954;7.998;2023-09-08T21:06:28;7.55;;;6.00;;
15110;SDS011;7656;51.954;7.998;2023-09-08T21:10:49;7.53;;;6.07;;
15110;SDS011;7656;51.954;7.998;2023-09-08T21:15:10;6.65;;;5.97;;
15110;SDS011;7656;51.954;7.998;2023-09-08T21:19:31;7.95;;;6.10;;
15110;SDS011;7656;51.954;7.998;2023-09-08T21:23:53;8.00;;;6.80;;
15110;SDS011;7656;51.954;7.998;2023-09-08T21:28:14;7.25;;;6.55;;
15110;SDS011;7656;51.954;7.998;2023-09-08T21:32:35;6.85;;;6.00;;
15110;SDS011;7656;51.954;7.998;2023-09-08T21:36:56;6.72;;;5.97;;
15110;SDS011;7656;51.954;7.998;2023-09-08T21:41:17;7.82;;;6.18;;
15110;SDS011;7656;51.954;7.998;2023-09-08T21:45:38;7.32;;;6.28;;
15110;SDS011;7656;51.954;7.998;2023-09-08T21:49:59;6.93;;;6.22;;
15110;SDS011;7656;51.954;7.998;2023-09-08T21:54:20;8.18;;;6.00;;
15110;SDS011;7656;51.954;7.998;2023-09-08T21:58:42;7.55;;;6.63;;
15110;SDS011;7656;51.954;7.998;2023-09-08T22:03:03;8.05;;;6.65;;
15110;SDS011;7656;51.954;7.998;2023-09-08T22:07:24;6.78;;;6.07;;
15110;SDS011;7656;51.954;7.998;2023-09-08T22:11:47;6.63;;;5.75;;
15110;SDS011;7656;51.954;7.998;2023-09-08T22:16:09;6.10;;;5.50;;
15110;SDS011;7656;51.954;7.998;2023-09-08T22:20:30;8.27;;;6.00;;
15110;SDS011;7656;51.954;7.998;2023-09-08T22:24:52;8.55;;;7.03;;
15110;SDS011;7656;51.954;7.998;2023-09-08T22:29:13;8.50;;;6.60;;
15110;SDS011;7656;51.954;7.998;2023-09-08T22:33:34;9.10;;;6.47;;
15110;SDS011;7656;51.954;7.998;2023-09-08T22:37:55;7.65;;;6.90;;
15110;SDS011;7656;51.954;7.998;2023-09-08T22:42:16;7.93;;;7.03;;
15110;SDS011;7656;51.954;7.998;2023-09-08T22:46:37;7.15;;;6.55;;
15110;SDS011;7656;51.954;7.998;2023-09-08T22:50:58;7.75;;;7.03;;
15110;SDS011;7656;51.954;7.998;2023-09-08T22:55:19;7.80;;;7.00;;
15110;SDS011;7656;51.954;7.998;2023-09-08T22:59:40;8.73;;;7.78;;
15110;SDS011;7656;51.954;7.998;2023-09-08T23:04:01;9.77;;;7.18;;
15110;SDS011;7656;51.954;7.998;2023-09-08T23:08:22;7.53;;;6.82;;
15110;SDS011;7656;51.954;7.998;2023-09-08T23:12:44;7.63;;;6.67;;
15110;SDS011;7656;51.954;7.998;2023-09-08T23:17:06;8.83;;;7.03;;
15110;SDS011;7656;51.954;7.998;2023-09-08T23:21:27;7.73;;;7.03;;
15110;SDS011;7656;51.954;7.998;2023-09-08T23:25:48;7.60;;;6.85;;
15110;SDS011;7656;51.954;7.998;2023-09-08T23:30:10;9.32;;;7.57;;
15110;SDS011;7656;51.954;7.998;2023-09-08T23:34:32;8.75;;;7.38;;
15110;SDS011;7656;51.954;7.998;2023-09-08T23:38:55;11.43;;;7.63;;
15110;SDS011;7656;51.954;7.998;2023-09-08T23:43:16;9.20;;;8.30;;
15110;SDS011;7656;51.954;7.998;2023-09-08T23:47:37;9.77;;;8.23;;
15110;SDS011;7656;51.954;7.998;2023-09-08T23:51:59;8.70;;;7.43;;
15110;SDS011;7656;51.954;7.998;2023-09-08T23:56:20;9.87;;;7.23;;
